Time;durP1;ratioP1;P1;durP2;ratioP2;P2;SDS_P1;SDS_P2;PMS_P1;PMS_P2;Temp;Humidity;BMP_temperature;BMP_pressure;BME280_temperature;BME280_humidity;BME280_pressure;Samples;Min_cycle;Max_cycle;Signal;HPM_P1;HPM_P2
2021/01/16 00:00:54;;;;;;;22.70;9.10;;;;;;;-3.37;84.01;101367.67;1689661;82;27444;-74
2021/01/16 00:03:21;;;;;;;21.23;9.15;;;;;;;-3.35;84.00;101360.73;1689316;82;25802;-73
2021/01/16 00:05:48;;;;;;;22.67;10.15;;;;;;;-3.35;84.02;101363.78;1692991;82;25717;-73
2021/01/16 00:08:18;;;;;;;17.02;8.23;;;;;;;-3.35;83.99;101357.23;1691169;82;26489;-73
2021/01/16 00:10:48;;;;;;;19.32;8.13;;;;;;;-3.35;84.04;101365.98;1695540;82;25746;-71
2021/01/16 00:13:28;;;;;;;22.82;10.82;;;;;;;-3.34;84.02;101364.24;1692115;82;27551;-71
2021/01/16 00:15:55;;;;;;;30.77;12.23;;;;;;;-3.38;83.99;101359.77;1694263;82;25829;-74
2021/01/16 00:18:24;;;;;;;22.55;9.55;;;;;;;-3.38;84.08;101362.39;1692578;82;25995;-73
2021/01/16 00:20:54;;;;;;;25.90;11.65;;;;;;;-3.39;84.05;101360.20;1691042;82;26099;-72
2021/01/16 00:23:28;;;;;;;21.15;9.98;;;;;;;-3.39;84.14;101361.51;1692854;82;26035;-74
2021/01/16 00:25:56;;;;;;;29.48;12.07;;;;;;;-3.37;84.16;101362.44;1689234;82;27670;-72
2021/01/16 00:28:28;;;;;;;30.55;13.08;;;;;;;-3.37;84.14;101370.72;1691358;82;25907;-73
2021/01/16 00:30:54;;;;;;;32.75;12.60;;;;;;;-3.34;84.22;101369.06;1693086;82;25818;-72
2021/01/16 00:33:27;;;;;;;32.78;13.85;;;;;;;-3.31;84.23;101363.01;1697727;82;34942;-72
2021/01/16 00:35:56;;;;;;;28.90;12.88;;;;;;;-3.27;84.22;101370.09;1692908;82;26040;-71
2021/01/16 00:38:24;;;;;;;22.05;11.18;;;;;;;-3.24;84.24;101366.66;1691868;82;27045;-72
2021/01/16 00:40:51;;;;;;;30.62;13.60;;;;;;;-3.25;84.20;101360.53;1696017;82;25867;-74
2021/01/16 00:43:17;;;;;;;30.72;14.85;;;;;;;-3.27;84.19;101355.68;1689469;82;26168;-73
2021/01/16 00:45:45;;;;;;;29.42;13.35;;;;;;;-3.27;84.22;101351.75;1686802;82;26777;-72
2021/01/16 00:48:14;;;;;;;29.40;14.30;;;;;;;-3.25;84.24;101354.41;1691038;82;25911;-72
2021/01/16 00:50:41;;;;;;;24.80;12.47;;;;;;;-3.23;84.27;101360.14;1691384;82;28187;-73
2021/01/16 00:53:07;;;;;;;28.47;14.15;;;;;;;-3.22;84.26;101349.23;1693278;82;25750;-72
2021/01/16 00:55:37;;;;;;;23.80;12.50;;;;;;;-3.25;84.23;101359.22;1692781;82;31061;-73
2021/01/16 00:58:18;;;;;;;30.62;15.78;;;;;;;-3.28;84.28;101353.48;1692060;82;26014;-72
2021/01/16 01:00:50;;;;;;;26.82;13.28;;;;;;;-3.29;84.34;101350.40;1691741;82;25815;-72
2021/01/16 01:03:21;;;;;;;26.68;12.33;;;;;;;-3.27;84.36;101362.23;1691871;82;27622;-72
2021/01/16 01:05:48;;;;;;;25.95;13.48;;;;;;;-3.28;84.36;101348.66;1688552;82;25753;-71
2021/01/16 01:08:15;;;;;;;32.83;14.07;;;;;;;-3.27;84.38;101354.37;1694515;82;26070;-72
2021/01/16 01:10:47;;;;;;;34.78;15.08;;;;;;;-3.27;84.44;101349.13;1692548;82;25908;-72
2021/01/16 01:13:14;;;;;;;33.40;14.83;;;;;;;-3.23;84.45;101350.97;1690475;82;25730;-72
2021/01/16 01:15:41;;;;;;;25.60;12.33;;;;;;;-3.24;84.42;101363.62;1697029;82;27564;-72
2021/01/16 01:18:08;;;;;;;23.47;11.63;;;;;;;-3.22;84.45;101359.72;1692642;82;26043;-73
2021/01/16 01:20:34;;;;;;;24.65;11.63;;;;;;;-3.22;84.48;101361.03;1697600;82;25894;-72
2021/01/16 01:23:02;;;;;;;26.82;13.32;;;;;;;-3.20;84.52;101362.84;1692794;82;25782;-72
2021/01/16 01:25:28;;;;;;;25.60;11.53;;;;;;;-3.18;84.50;101359.83;1687704;82;25870;-72
2021/01/16 01:27:58;;;;;;;24.82;10.78;;;;;;;-3.18;84.50;101355.89;1690048;82;27518;-73
2021/01/16 01:30:30;;;;;;;27.07;12.00;;;;;;;-3.15;84.56;101356.39;1690152;82;25820;-72
2021/01/16 01:32:59;;;;;;;27.30;12.60;;;;;;;-3.15;84.53;101357.28;1598939;84;25900;-72
2021/01/16 01:35:27;;;;;;;28.87;13.13;;;;;;;-3.13;84.57;101352.95;1651312;84;26662;-71
2021/01/16 01:37:56;;;;;;;23.60;11.48;;;;;;;-3.10;84.62;101356.96;1689617;82;25805;-72
2021/01/16 01:40:26;;;;;;;23.18;10.45;;;;;;;-3.11;84.58;101355.19;1693381;82;27488;-72
2021/01/16 01:42:54;;;;;;;28.02;11.50;;;;;;;-3.10;84.60;101360.89;1696627;82;25795;-72
2021/01/16 01:45:21;;;;;;;26.25;11.50;;;;;;;-3.12;84.58;101366.53;1690492;82;25786;-72
2021/01/16 01:47:49;;;;;;;27.67;11.57;;;;;;;-3.10;84.64;101363.52;1688655;82;25821;-72
2021/01/16 01:50:17;;;;;;;28.15;10.58;;;;;;;-3.08;84.63;101366.17;1687208;82;26201;-72
2021/01/16 01:52:44;;;;;;;26.27;10.63;;;;;;;-3.07;84.65;101367.52;1693085;82;27447;-72
2021/01/16 01:55:12;;;;;;;25.40;10.80;;;;;;;-3.04;84.65;101364.08;1690308;82;26124;-72
2021/01/16 01:57:50;;;;;;;24.50;9.85;;;;;;;-3.02;84.66;101373.76;1692054;82;26296;-72
2021/01/16 02:00:18;;;;;;;22.02;9.63;;;;;;;-3.02;84.62;101363.70;1692059;82;26053;-71
2021/01/16 02:02:47;;;;;;;21.93;9.23;;;;;;;-3.04;84.64;101358.84;1692238;82;25903;-74
2021/01/16 02:05:14;;;;;;;19.98;9.83;;;;;;;-3.06;84.68;101361.85;1690890;82;28173;-74
2021/01/16 02:07:40;;;;;;;22.40;8.48;;;;;;;-3.05;84.69;101357.95;1687205;82;26342;-72
2021/01/16 02:10:22;;;;;;;21.40;8.75;;;;;;;-3.04;84.72;101362.35;1687389;82;25770;-72
2021/01/16 02:12:54;;;;;;;19.70;8.78;;;;;;;-3.03;84.71;101358.87;1691729;82;25939;-72
2021/01/16 02:15:31;;;;;;;19.60;8.05;;;;;;;-3.03;84.72;101361.50;1684105;82;25895;-74
2021/01/16 02:18:12;;;;;;;25.37;9.03;;;;;;;-3.03;84.72;101357.56;1688749;82;27599;-71
2021/01/16 02:20:42;;;;;;;19.35;8.10;;;;;;;-3.04;84.73;101361.47;1692902;82;25922;-71
2021/01/16 02:23:32;;;;;;;17.40;6.87;;;;;;;-3.04;84.75;101351.86;1692496;82;25889;-72
2021/01/16 02:26:41;;;;;;;16.15;7.35;;;;;;;-3.01;84.79;101354.98;1672718;82;26307;-73
2021/01/16 02:29:10;;;;;;;16.48;7.45;;;;;;;-3.04;84.73;101359.73;1653683;84;26028;-71
2021/01/16 02:31:44;;;;;;;14.50;7.12;;;;;;;-3.04;84.79;101359.73;1659231;84;28591;-71
2021/01/16 02:34:16;;;;;;;16.48;6.83;;;;;;;-3.04;84.76;101357.53;1658052;84;25833;-72
2021/01/16 02:37:02;;;;;;;13.58;6.10;;;;;;;-3.03;84.75;101351.44;1656078;84;25736;-71
2021/01/16 02:40:06;;;;;;;16.50;6.53;;;;;;;-3.05;84.75;101355.33;1646653;84;26377;-73
2021/01/16 02:42:52;;;;;;;14.25;5.97;;;;;;;-3.08;84.72;101353.06;1657849;84;25860;-73
2021/01/16 02:45:27;;;;;;;12.80;5.30;;;;;;;-3.09;84.75;101351.30;1612966;84;28393;-72
2021/01/16 02:48:19;;;;;;;11.57;6.45;;;;;;;-3.09;84.74;101356.53;1659738;84;26081;-71
2021/01/16 02:50:52;;;;;;;15.15;6.55;;;;;;;-3.11;84.72;101354.30;1657620;84;25974;-71
2021/01/16 02:53:24;;;;;;;17.52;6.17;;;;;;;-3.13;84.71;101362.56;1662225;84;26746;-71
2021/01/16 02:55:52;;;;;;;14.18;6.55;;;;;;;-3.13;84.74;101359.52;1658334;84;25863;-71
2021/01/16 02:58:20;;;;;;;12.53;5.50;;;;;;;-3.14;84.73;101356.43;1652752;84;27577;-71
2021/01/16 03:00:46;;;;;;;10.32;5.72;;;;;;;-3.13;84.73;101367.80;1661337;84;25923;-74
2021/01/16 03:03:13;;;;;;;13.10;5.78;;;;;;;-3.11;84.71;101363.48;1659395;84;25895;-71
2021/01/16 03:05:39;;;;;;;10.25;4.75;;;;;;;-3.16;84.64;101359.44;1658965;84;26710;-72
2021/01/16 03:08:07;;;;;;;11.18;4.87;;;;;;;-3.17;84.65;101353.73;1661211;83;25894;-72
2021/01/16 03:10:35;;;;;;;9.68;4.62;;;;;;;-3.20;84.65;101354.09;1662196;84;27678;-71
2021/01/16 03:13:01;;;;;;;9.53;5.33;;;;;;;-3.20;84.67;101356.71;1635496;84;26729;-71
2021/01/16 03:15:29;;;;;;;14.85;5.62;;;;;;;-3.22;84.62;101350.55;1659851;84;25961;-73
2021/01/16 03:17:57;;;;;;;12.80;4.62;;;;;;;-3.28;84.59;101353.91;1655734;84;26803;-71
2021/01/16 03:20:30;;;;;;;11.35;5.60;;;;;;;-3.29;84.62;101361.31;1660282;84;25784;-71
2021/01/16 03:23:01;;;;;;;9.30;4.80;;;;;;;-3.35;84.57;101369.02;1659940;84;28605;-73
2021/01/16 03:25:30;;;;;;;12.35;6.72;;;;;;;-3.36;84.61;101368.14;1665225;82;26049;-72
2021/01/16 03:27:58;;;;;;;14.00;4.70;;;;;;;-3.40;84.58;101364.98;1708941;82;25886;-73
2021/01/16 03:30:26;;;;;;;11.90;5.40;;;;;;;-3.41;84.61;101359.70;1710510;82;25958;-72
2021/01/16 03:32:53;;;;;;;15.53;4.95;;;;;;;-3.41;84.68;101361.89;1704670;82;25944;-72
2021/01/16 03:35:25;;;;;;;10.65;5.60;;;;;;;-3.41;84.62;101364.52;1709317;82;28202;-72
2021/01/16 03:37:55;;;;;;;9.98;4.95;;;;;;;-3.44;84.61;101364.44;1704748;82;25956;-71
2021/01/16 03:40:23;;;;;;;9.70;4.37;;;;;;;-3.42;84.61;101364.48;1707417;82;26447;-71
2021/01/16 03:42:48;;;;;;;9.20;4.85;;;;;;;-3.44;84.60;101363.13;1708423;82;26730;-71
2021/01/16 03:45:21;;;;;;;8.90;4.70;;;;;;;-3.50;84.54;101366.91;1710911;82;32671;-73
2021/01/16 03:47:47;;;;;;;13.18;5.65;;;;;;;-3.51;84.58;101356.39;1701765;82;27456;-71
2021/01/16 03:50:13;;;;;;;13.48;5.35;;;;;;;-3.51;84.61;101364.25;1711842;82;25441;-71
2021/01/16 03:52:40;;;;;;;9.38;4.53;;;;;;;-3.48;84.58;101364.33;1708327;82;25917;-71
2021/01/16 03:55:10;;;;;;;10.13;5.08;;;;;;;-3.49;84.58;101369.11;1712993;82;25812;-71
2021/01/16 03:57:37;;;;;;;17.37;6.30;;;;;;;-3.49;84.58;101362.55;1699337;82;25816;-71
2021/01/16 04:00:09;;;;;;;11.00;4.40;;;;;;;-3.52;84.53;101364.67;1708855;82;28508;-71
2021/01/16 04:02:36;;;;;;;9.13;4.15;;;;;;;-3.56;84.52;101365.87;1706313;82;25807;-71
2021/01/16 04:05:03;;;;;;;9.23;4.28;;;;;;;-3.61;84.49;101361.40;1709118;82;26041;-71
2021/01/16 04:07:29;;;;;;;13.35;5.33;;;;;;;-3.64;84.49;101359.13;1713356;82;26094;-73
2021/01/16 04:09:56;;;;;;;10.38;4.92;;;;;;;-3.64;84.47;101366.98;1717042;82;25891;-73
2021/01/16 04:12:24;;;;;;;11.05;4.28;;;;;;;-3.68;84.48;101350.30;1705540;82;27465;-71
2021/01/16 04:14:50;;;;;;;9.93;4.55;;;;;;;-3.67;84.46;101360.36;1701530;82;26082;-71
2021/01/16 04:17:16;;;;;;;14.83;4.22;;;;;;;-3.66;84.48;101356.89;1710041;82;25774;-71
2021/01/16 04:19:42;;;;;;;9.70;4.20;;;;;;;-3.68;84.43;101354.23;1712773;82;25851;-71
2021/01/16 04:22:08;;;;;;;9.68;4.10;;;;;;;-3.67;84.46;101361.24;1711700;82;25868;-71
2021/01/16 04:24:34;;;;;;;13.90;4.90;;;;;;;-3.68;84.43;101364.70;1705056;82;28251;-71
2021/01/16 04:27:01;;;;;;;9.53;4.25;;;;;;;-3.66;84.48;101359.09;1698485;82;33496;-71
2021/01/16 04:29:27;;;;;;;9.15;4.05;;;;;;;-3.66;84.39;101355.58;1688133;82;26326;-71
2021/01/16 04:31:53;;;;;;;9.35;4.53;;;;;;;-3.71;84.33;101359.39;1695891;82;35401;-71
2021/01/16 04:34:19;;;;;;;11.40;4.87;;;;;;;-3.73;84.37;101357.58;1689184;82;25934;-73
2021/01/16 04:36:45;;;;;;;8.40;4.30;;;;;;;-3.71;84.41;101348.91;1694808;82;27443;-72
2021/01/16 04:39:12;;;;;;;12.80;5.30;;;;;;;-3.73;84.32;101347.98;1695531;82;26431;-71
2021/01/16 04:41:38;;;;;;;11.25;4.45;;;;;;;-3.71;84.33;101348.03;1688899;82;25797;-74
2021/01/16 04:44:05;;;;;;;9.28;4.65;;;;;;;-3.71;84.31;101349.34;1696802;82;26485;-71
2021/01/16 04:46:32;;;;;;;10.53;4.70;;;;;;;-3.70;84.32;101345.87;1692417;82;26115;-71
2021/01/16 04:49:06;;;;;;;10.58;4.83;;;;;;;-3.72;84.23;101345.83;1697276;82;27461;-71
2021/01/16 04:51:35;;;;;;;11.20;4.20;;;;;;;-3.74;84.27;101339.66;1686343;82;25857;-74
2021/01/16 04:54:05;;;;;;;7.15;3.30;;;;;;;-3.72;84.29;101339.28;1693482;82;26989;-73
2021/01/16 04:56:35;;;;;;;10.65;5.17;;;;;;;-3.72;84.14;101337.09;1690664;82;26159;-72
2021/01/16 04:59:02;;;;;;;14.55;4.17;;;;;;;-3.79;84.09;101339.97;1693675;82;25784;-74
2021/01/16 05:01:28;;;;;;;11.35;5.10;;;;;;;-3.80;84.08;101335.58;1694502;82;27662;-72
2021/01/16 05:03:57;;;;;;;11.55;5.12;;;;;;;-3.82;84.05;101337.70;1687465;82;26497;-71
2021/01/16 05:06:29;;;;;;;15.40;5.80;;;;;;;-3.83;84.01;101338.55;1692052;82;25889;-71
2021/01/16 05:08:58;;;;;;;9.38;4.58;;;;;;;-3.85;83.95;101337.62;1692235;82;26271;-71
2021/01/16 05:11:45;;;;;;;12.78;4.60;;;;;;;-3.90;83.87;101343.16;1688267;82;25799;-71
2021/01/16 05:14:19;;;;;;;10.48;3.50;;;;;;;-3.94;83.94;101331.30;1694134;82;27694;-73
2021/01/16 05:16:58;;;;;;;13.95;5.25;;;;;;;-3.95;83.84;101333.45;1691906;82;25937;-74
2021/01/16 05:19:37;;;;;;;11.00;5.72;;;;;;;-3.99;83.75;101328.09;1694013;82;28826;-73
2021/01/16 05:22:04;;;;;;;13.15;5.85;;;;;;;-4.02;83.72;101335.86;1691341;82;26549;-73
2021/01/16 05:24:30;;;;;;;9.23;4.60;;;;;;;-4.08;83.65;101333.97;1691334;82;25971;-73
2021/01/16 05:27:07;;;;;;;13.88;5.87;;;;;;;-4.12;83.52;101331.23;1690863;82;27674;-73
2021/01/16 05:29:36;;;;;;;13.00;5.25;;;;;;;-4.17;83.60;101334.14;1692879;82;25976;-71
2021/01/16 05:32:05;;;;;;;11.73;4.22;;;;;;;-4.18;83.54;101324.52;1688916;82;26177;-71
2021/01/16 05:34:33;;;;;;;13.40;5.97;;;;;;;-4.21;83.47;101333.59;1692564;82;25814;-73
2021/01/16 05:37:00;;;;;;;8.98;4.37;;;;;;;-4.25;83.49;101330.89;1689013;82;25657;-71
2021/01/16 05:39:32;;;;;;;13.00;5.83;;;;;;;-4.26;83.42;101334.36;1689449;82;27413;-71
2021/01/16 05:42:04;;;;;;;12.68;6.05;;;;;;;-4.29;83.38;101328.16;1691561;82;25858;-71
2021/01/16 05:44:33;;;;;;;15.10;6.40;;;;;;;-4.32;83.32;101331.57;1690851;82;25814;-71
2021/01/16 05:47:00;;;;;;;17.92;6.75;;;;;;;-4.34;83.26;101326.72;1689255;82;25960;-72
2021/01/16 05:49:27;;;;;;;16.62;5.92;;;;;;;-4.35;83.23;101326.25;1690191;82;26703;-71
2021/01/16 05:51:54;;;;;;;15.90;5.87;;;;;;;-4.36;83.20;101334.06;1690395;82;27523;-73
2021/01/16 05:54:20;;;;;;;17.92;6.00;;;;;;;-4.40;83.11;101332.20;1695156;82;25874;-71
2021/01/16 05:56:49;;;;;;;14.30;5.95;;;;;;;-4.44;83.12;101326.42;1693854;82;25982;-72
2021/01/16 05:59:19;;;;;;;18.85;5.70;;;;;;;-4.48;83.03;101325.86;1689461;82;26453;-72
2021/01/16 06:01:47;;;;;;;17.67;6.87;;;;;;;-4.52;82.99;101323.58;1694536;82;25543;-73
2021/01/16 06:04:21;;;;;;;12.65;4.65;;;;;;;-4.55;83.01;101323.50;1697725;82;26966;-75
2021/01/16 06:06:48;;;;;;;17.12;6.17;;;;;;;-4.55;82.85;101322.19;1684821;82;26502;-73
2021/01/16 06:09:20;;;;;;;16.37;6.78;;;;;;;-4.56;82.89;101326.95;1695058;82;25963;-73
2021/01/16 06:11:49;;;;;;;14.28;5.30;;;;;;;-4.56;82.86;101326.95;1687774;82;26355;-72
2021/01/16 06:14:16;;;;;;;16.32;6.17;;;;;;;-4.58;82.79;101336.48;1693217;82;26004;-71
2021/01/16 06:16:54;;;;;;;8.73;4.22;;;;;;;-4.63;82.63;101332.86;1693444;82;27438;-71
2021/01/16 06:19:26;;;;;;;11.57;4.47;;;;;;;-4.62;82.60;101326.78;1686835;82;26070;-74
2021/01/16 06:21:52;;;;;;;;;;;;;;;-4.66;82.58;101324.50;1676535;83;25908;-73
2021/01/16 06:24:22;;;;;;;14.75;6.35;;;;;;;-4.68;82.48;101323.98;1690005;82;26713;-73
2021/01/16 06:26:59;;;;;;;14.23;6.85;;;;;;;-4.68;82.55;101322.68;1689061;82;25799;-72
2021/01/16 06:29:35;;;;;;;16.35;5.85;;;;;;;-4.66;82.57;101322.30;1693007;82;27673;-72
2021/01/16 06:32:10;;;;;;;11.20;5.55;;;;;;;-4.68;82.52;101318.34;1684451;82;25867;-74
2021/01/16 06:34:41;;;;;;;15.85;5.28;;;;;;;-4.70;82.43;101313.48;1692825;82;25901;-72
2021/01/16 06:37:15;;;;;;;14.87;5.40;;;;;;;-4.72;82.39;101319.09;1691464;82;26602;-72
2021/01/16 06:39:45;;;;;;;12.55;5.70;;;;;;;-4.71;82.33;101314.33;1690633;82;26144;-72
2021/01/16 06:42:17;;;;;;;10.60;5.17;;;;;;;-4.72;82.33;101323.44;1689401;82;28352;-74
2021/01/16 06:44:43;;;;;;;12.43;5.80;;;;;;;-4.71;82.27;101326.52;1688169;82;25807;-72
2021/01/16 06:47:09;;;;;;;9.80;5.22;;;;;;;-4.71;82.29;101325.20;1685815;82;25938;-73
2021/01/16 06:49:36;;;;;;;11.78;5.25;;;;;;;-4.71;82.30;101313.02;1694541;82;26652;-73
2021/01/16 06:52:08;;;;;;;15.50;6.17;;;;;;;-4.73;82.16;101316.01;1692480;82;25957;-73
2021/01/16 06:54:37;;;;;;;12.18;5.37;;;;;;;-4.72;82.23;101315.59;1694973;82;27790;-71
2021/01/16 06:57:14;;;;;;;13.65;5.65;;;;;;;-4.72;82.25;101316.48;1693813;82;25946;-71
2021/01/16 06:59:43;;;;;;;18.12;7.08;;;;;;;-4.75;82.02;101315.50;1686289;82;26538;-71
2021/01/16 07:02:25;;;;;;;14.20;5.25;;;;;;;-4.81;81.96;101308.78;1691937;82;26068;-72
2021/01/16 07:05:03;;;;;;;12.00;5.20;;;;;;;-4.79;82.02;101311.02;1694439;82;25879;-73
2021/01/16 07:07:36;;;;;;;13.62;4.92;;;;;;;-4.80;82.04;101311.86;1689402;82;27549;-72
2021/01/16 07:10:17;;;;;;;16.10;6.17;;;;;;;-4.79;81.93;101321.48;1688625;82;25898;-71
2021/01/16 07:12:46;;;;;;;12.23;5.35;;;;;;;-4.84;81.76;101309.58;1691011;82;26031;-72
2021/01/16 07:15:12;;;;;;;13.75;5.80;;;;;;;-4.94;81.71;101299.69;1687322;82;26497;-73
2021/01/16 07:17:39;;;;;;;12.13;4.67;;;;;;;-4.88;81.75;101308.13;1690444;82;25792;-73
2021/01/16 07:20:07;;;;;;;13.05;5.10;;;;;;;-4.95;81.63;101307.95;1695380;82;27524;-73
2021/01/16 07:22:38;;;;;;;16.55;7.10;;;;;;;-4.99;81.46;101301.28;1690499;82;26027;-74
2021/01/16 07:25:08;;;;;;;18.83;7.03;;;;;;;-5.03;81.46;101297.69;1691910;82;25752;-72
2021/01/16 07:27:36;;;;;;;14.55;5.00;;;;;;;-5.06;81.45;101296.71;1692331;82;26586;-73
2021/01/16 07:30:07;;;;;;;12.58;5.87;;;;;;;-5.07;81.34;101297.13;1694387;82;25802;-71
2021/01/16 07:32:45;;;;;;;;;;;;;;;-5.08;81.44;101293.16;1694182;82;27588;-71
2021/01/16 07:35:22;;;;;;;12.53;5.67;;;;;;;-5.09;81.28;101303.16;1663440;83;26097;-72
2021/01/16 07:37:51;;;;;;;13.10;5.53;;;;;;;-5.11;81.33;101288.73;1689793;82;25866;-72
2021/01/16 07:40:21;;;;;;;15.08;6.20;;;;;;;-5.09;81.30;101287.05;1689660;82;26599;-72
2021/01/16 07:43:03;;;;;;;14.47;5.20;;;;;;;-5.10;81.31;101293.54;1683253;82;25883;-72
2021/01/16 07:45:39;;;;;;;14.13;5.58;;;;;;;-5.10;81.30;101287.00;1686921;82;27708;-72
2021/01/16 07:48:07;;;;;;;15.80;6.95;;;;;;;-5.15;81.07;101288.17;1682620;82;26438;-72
2021/01/16 07:50:37;;;;;;;18.35;5.53;;;;;;;-5.16;81.13;101282.91;1662151;84;25874;-71
2021/01/16 07:53:06;;;;;;;14.70;4.78;;;;;;;-5.15;81.14;101284.67;1689910;82;26510;-70
2021/01/16 07:55:40;;;;;;;15.10;6.40;;;;;;;-5.17;81.08;101282.02;1690725;82;25836;-71
2021/01/16 07:58:31;;;;;;;16.10;7.25;;;;;;;-5.19;81.10;101281.08;1690434;82;27457;-71
2021/01/16 08:01:19;;;;;;;14.90;6.37;;;;;;;-5.21;81.03;101290.63;1693694;82;26461;-72
2021/01/16 08:03:57;;;;;;;19.20;7.28;;;;;;;-5.22;81.05;101279.72;1691655;82;26002;-72
2021/01/16 08:06:49;;;;;;;23.27;8.35;;;;;;;-5.25;80.90;101273.98;1692794;82;26656;-70
2021/01/16 08:09:23;;;;;;;26.12;8.40;;;;;;;-5.25;80.97;101281.81;1689658;82;25841;-70
2021/01/16 08:11:51;;;;;;;21.48;8.10;;;;;;;-5.26;80.83;101277.85;1683980;82;28608;-71
2021/01/16 08:14:21;;;;;;;21.23;6.95;;;;;;;-5.30;80.83;101272.95;1689031;82;26507;-71
2021/01/16 08:16:57;;;;;;;23.98;7.50;;;;;;;-5.29;80.86;101281.25;1691175;82;26630;-71
2021/01/16 08:19:55;;;;;;;22.35;7.75;;;;;;;-5.30;80.87;101258.58;1689554;82;26488;-71
2021/01/16 08:22:21;;;;;;;23.45;8.90;;;;;;;-5.31;80.68;101265.06;1673248;82;26037;-70
2021/01/16 08:25:02;;;;;;;20.17;7.97;;;;;;;-5.32;80.75;101264.59;1673221;82;28253;-71
2021/01/16 08:27:31;;;;;;;20.60;7.40;;;;;;;-5.28;80.88;101257.32;1692428;82;25835;-71
2021/01/16 08:30:01;;;;;;;19.85;7.42;;;;;;;-5.27;80.62;101264.32;1710404;82;26001;-72
2021/01/16 08:32:28;;;;;;;16.93;6.80;;;;;;;-5.14;80.93;101255.97;1706420;82;25929;-72
2021/01/16 08:35:01;;;;;;;20.97;6.95;;;;;;;-5.06;80.89;101254.47;1709816;82;25988;-71
2021/01/16 08:37:39;;;;;;;25.45;8.75;;;;;;;-4.86;81.02;101258.97;1706216;82;28403;-70
2021/01/16 08:40:09;;;;;;;22.42;7.03;;;;;;;-4.90;80.64;101267.14;1705264;82;26350;-69
2021/01/16 08:42:51;;;;;;;22.83;6.90;;;;;;;-4.98;80.51;101263.84;1706621;82;26475;-71
2021/01/16 08:45:16;;;;;;;;;;;;;;;-5.05;80.31;101273.23;1707491;82;26493;-70
2021/01/16 08:47:51;;;;;;;23.83;7.28;;;;;;;-5.08;80.39;101261.80;1709557;82;32733;-71
2021/01/16 08:50:18;;;;;;;22.15;7.33;;;;;;;-5.11;80.46;101245.61;1707352;82;27484;-71
2021/01/16 08:52:44;;;;;;;20.82;6.87;;;;;;;-5.10;80.46;101237.34;1710265;82;25952;-72
2021/01/16 08:55:12;;;;;;;17.60;6.67;;;;;;;-5.12;80.23;101227.27;1704716;82;26522;-71
2021/01/16 08:57:39;;;;;;;22.87;8.05;;;;;;;-5.14;80.19;101227.23;1707655;82;25822;-72
2021/01/16 09:00:19;;;;;;;28.80;8.33;;;;;;;-5.05;80.46;101229.22;1707412;82;25916;-72
2021/01/16 09:03:16;;;;;;;16.50;5.92;;;;;;;-4.96;80.31;101233.41;1705451;82;27471;-70
2021/01/16 09:05:41;;;;;;;26.90;8.58;;;;;;;-4.97;80.11;101237.75;1700241;82;26567;-70
2021/01/16 09:08:22;;;;;;;26.12;8.45;;;;;;;-5.04;79.73;101241.45;1710391;82;25822;-70
2021/01/16 09:10:50;;;;;;;24.18;8.75;;;;;;;-5.01;80.01;101248.07;1708774;82;25857;-71
2021/01/16 09:13:25;;;;;;;20.08;8.33;;;;;;;-4.98;79.81;101251.66;1705467;82;26637;-72
2021/01/16 09:15:51;;;;;;;18.37;7.00;;;;;;;-4.96;79.84;101247.78;1705129;81;27647;-71
2021/01/16 09:18:17;;;;;;;26.37;9.88;;;;;;;-4.91;79.94;101254.03;1706889;82;25969;-71
2021/01/16 09:20:48;;;;;;;27.45;8.58;;;;;;;-4.86;79.91;101248.94;1704536;82;25874;-72
2021/01/16 09:23:37;;;;;;;27.48;7.97;;;;;;;-4.82;79.96;101245.14;1708963;82;25958;-70
2021/01/16 09:26:10;;;;;;;26.17;8.65;;;;;;;-4.78;79.81;101252.23;1707156;82;25730;-71
2021/01/16 09:29:01;;;;;;;21.57;8.18;;;;;;;-4.74;79.81;101250.59;1698554;82;27486;-71
2021/01/16 09:31:36;;;;;;;24.72;9.33;;;;;;;-4.69;79.72;101239.41;1640759;83;25962;-71
2021/01/16 09:34:12;;;;;;;35.48;11.30;;;;;;;-4.58;79.64;101233.16;1627220;86;25909;-70
2021/01/16 09:36:46;;;;;;;28.23;12.40;;;;;;;-4.53;79.81;101228.95;1693584;82;25970;-71
2021/01/16 09:39:22;;;;;;;30.15;11.45;;;;;;;-4.47;79.68;101226.91;1690228;82;25827;-72
2021/01/16 09:41:53;;;;;;;24.98;10.70;;;;;;;-4.43;79.77;101226.15;1688046;82;27450;-72
2021/01/16 09:44:43;;;;;;;32.80;12.93;;;;;;;-4.41;79.58;101219.23;1696612;81;25914;-74
2021/01/16 09:47:30;;;;;;;22.13;9.15;;;;;;;-4.41;79.51;101217.50;1690936;82;25694;-72
2021/01/16 09:50:11;;;;;;;20.10;8.13;;;;;;;-4.36;79.17;101197.99;1690780;82;25937;-73
2021/01/16 09:52:54;;;;;;;26.77;7.78;;;;;;;-4.33;79.38;101201.58;1691324;82;25948;-74
2021/01/16 09:55:25;;;;;;;17.80;8.60;;;;;;;-4.30;79.12;101200.34;1690849;82;27444;-75
2021/01/16 09:57:51;;;;;;;16.25;7.25;;;;;;;-4.25;79.13;101184.76;1696925;82;25889;-73
2021/01/16 10:00:30;;;;;;;15.25;6.95;;;;;;;-4.20;79.04;101183.56;1692933;82;25848;-73
2021/01/16 10:03:13;;;;;;;17.60;7.97;;;;;;;-4.17;79.09;101171.86;1686189;82;26026;-73
2021/01/16 10:05:41;;;;;;;17.37;6.42;;;;;;;-4.13;78.95;101181.56;1694237;82;26078;-73
2021/01/16 10:08:09;;;;;;;19.00;7.72;;;;;;;-4.10;79.01;101176.40;1695327;82;27447;-74
2021/01/16 10:10:47;;;;;;;18.20;6.58;;;;;;;-4.05;78.96;101181.32;1694186;82;25858;-73
2021/01/16 10:13:30;;;;;;;17.82;7.53;;;;;;;-4.01;78.96;101175.31;1695213;82;25777;-74
2021/01/16 10:16:03;;;;;;;14.78;7.20;;;;;;;-3.94;79.00;101179.84;1685401;82;25940;-73
2021/01/16 10:18:33;;;;;;;15.43;7.00;;;;;;;-3.93;78.51;101164.17;1693086;82;28249;-73
2021/01/16 10:21:11;;;;;;;20.60;8.43;;;;;;;-3.94;78.60;101153.23;1693414;82;28664;-75
2021/01/16 10:23:43;;;;;;;21.45;7.90;;;;;;;-3.94;78.18;101147.12;1692029;82;25976;-74
2021/01/16 10:26:17;;;;;;;19.50;7.85;;;;;;;-3.89;78.26;101143.30;1692834;82;25823;-76
2021/01/16 10:29:10;;;;;;;16.23;6.85;;;;;;;-3.82;78.27;101147.40;1698188;82;25838;-76
2021/01/16 10:31:36;;;;;;;18.92;7.70;;;;;;;-3.78;78.28;101142.69;1664007;84;25947;-68
2021/01/16 10:34:10;;;;;;;14.35;7.22;;;;;;;-3.76;78.09;101139.68;1657963;84;27797;-68
2021/01/16 10:36:37;;;;;;;16.85;6.75;;;;;;;-3.69;78.17;101148.13;1665701;84;25916;-69
2021/01/16 10:39:13;;;;;;;18.12;7.65;;;;;;;-3.67;78.17;101132.02;1664108;84;26472;-68
2021/01/16 10:41:42;;;;;;;16.27;7.80;;;;;;;-3.59;78.33;101124.33;1662592;84;25957;-69
2021/01/16 10:44:13;;;;;;;24.37;7.67;;;;;;;-3.55;78.17;101125.28;1662557;84;25928;-69
2021/01/16 10:46:42;;;;;;;;;;;;;;;-3.52;77.90;101118.80;1665866;84;28260;-69
2021/01/16 10:49:25;;;;;;;12.53;6.50;;;;;;;-3.47;78.06;101113.23;1661154;84;25803;-69
2021/01/16 10:52:04;;;;;;;16.30;6.95;;;;;;;-3.41;78.08;101110.73;1664753;84;25548;-69
2021/01/16 10:54:31;;;;;;;14.47;7.60;;;;;;;-3.39;78.12;101103.36;1663434;84;26024;-68
2021/01/16 10:57:06;;;;;;;18.02;6.78;;;;;;;-3.38;77.47;101097.69;1665604;84;25800;-69
2021/01/16 10:59:40;;;;;;;13.20;5.72;;;;;;;-3.37;77.79;101086.35;1664203;84;28408;-69
2021/01/16 11:02:15;;;;;;;15.43;7.67;;;;;;;-3.28;77.35;101093.09;1663113;84;26411;-69
2021/01/16 11:04:45;;;;;;;15.38;6.87;;;;;;;-3.29;77.66;101082.15;1661590;84;25745;-69
2021/01/16 11:07:29;;;;;;;16.45;6.80;;;;;;;-3.24;77.35;101073.06;1662906;84;25834;-69
2021/01/16 11:10:09;;;;;;;16.27;7.83;;;;;;;-3.15;77.58;101079.37;1668395;84;26199;-69
2021/01/16 11:12:41;;;;;;;16.82;8.33;;;;;;;-3.07;77.43;101082.13;1668031;84;27498;-69
2021/01/16 11:15:25;;;;;;;20.10;7.87;;;;;;;-3.08;77.29;101076.43;1665532;84;26512;-69
2021/01/16 11:18:00;;;;;;;15.50;7.30;;;;;;;-3.08;76.91;101077.31;1666749;84;25974;-69
2021/01/16 11:20:27;;;;;;;12.58;5.10;;;;;;;-3.11;77.04;101053.66;1662904;84;26026;-69
2021/01/16 11:23:15;;;;;;;15.30;6.20;;;;;;;-3.05;76.81;101063.38;1666916;84;25912;-69
2021/01/16 11:25:46;;;;;;;16.12;6.40;;;;;;;-3.08;76.93;101052.84;1665902;84;27706;-67
2021/01/16 11:28:19;;;;;;;18.42;6.95;;;;;;;-3.08;76.95;101048.90;1673017;84;25850;-66
2021/01/16 11:30:48;;;;;;;19.52;7.87;;;;;;;-3.08;76.66;101045.85;1660690;84;26165;-69
2021/01/16 11:33:25;;;;;;;24.63;10.82;;;;;;;-3.11;76.79;101026.56;1658497;84;26373;-69
2021/01/16 11:36:05;;;;;;;20.15;8.58;;;;;;;-3.16;76.38;101039.58;1656184;84;25766;-69
2021/01/16 11:38:46;;;;;;;27.37;10.88;;;;;;;-3.18;76.32;101031.23;1658664;83;27519;-69